DLONG RJFR-RJAA
Flight info
| Callsign | DLONG |
|---|---|
| Flight time | 1h 20m |
| Altitude | 37000 |
| Route | KOHEI MYE V56 KRE V37 PADOC Y43 ISEBI Y81 RUTAS |
| Aircraft | A320/M-SDE3FGHIRWY/LB1 |
Departure
| Time | 2026-04-21 20:57 |
|---|---|
| Airport | Kitakyushu Airport (RJFR) |
Arrival
| Time | 2026-04-21 22:17 |
|---|---|
| Airport | Narita International Airport (RJAA) |
| Time | Latitude | Longitude | Altitude | Speed | Heading |
|---|---|---|---|---|---|
| 2026-04-21 20:51 | 33.83971 | 131.03425 | 30 ft | 0 kts | 351° |
| 2026-04-21 20:52 | 33.83975 | 131.03424 | 30 ft | 4 kts | 351° |
| 2026-04-21 20:52 | 33.84032 | 131.03413 | 30 ft | 9 kts | 351° |
| 2026-04-21 20:52 | 33.84089 | 131.03402 | 30 ft | 8 kts | 350° |
| 2026-04-21 20:52 | 33.84161 | 131.03387 | 30 ft | 13 kts | 350° |
| 2026-04-21 20:53 | 33.84243 | 131.03370 | 30 ft | 11 kts | 350° |
| 2026-04-21 20:53 | 33.84322 | 131.03354 | 30 ft | 15 kts | 350° |
| 2026-04-21 20:53 | 33.84434 | 131.03331 | 30 ft | 16 kts | 350° |
| 2026-04-21 20:53 | 33.84549 | 131.03307 | 30 ft | 17 kts | 351° |
| 2026-04-21 20:54 | 33.84669 | 131.03284 | 30 ft | 18 kts | 351° |
| 2026-04-21 20:54 | 33.84798 | 131.03259 | 30 ft | 19 kts | 349° |
| 2026-04-21 20:54 | 33.84933 | 131.03230 | 30 ft | 21 kts | 350° |
| 2026-04-21 20:54 | 33.85078 | 131.03201 | 30 ft | 22 kts | 350° |
| 2026-04-21 20:55 | 33.85233 | 131.03170 | 30 ft | 23 kts | 350° |
| 2026-04-21 20:55 | 33.85383 | 131.03138 | 30 ft | 19 kts | 350° |
| 2026-04-21 20:55 | 33.85508 | 131.03113 | 30 ft | 18 kts | 351° |
| 2026-04-21 20:55 | 33.85613 | 131.03102 | 30 ft | 11 kts | 26° |
| 2026-04-21 20:56 | 33.85650 | 131.03174 | 30 ft | 10 kts | 80° |
| 2026-04-21 20:56 | 33.85645 | 131.03262 | 29 ft | 11 kts | 127° |
| 2026-04-21 20:56 | 33.85583 | 131.03298 | 30 ft | 10 kts | 169° |
| 2026-04-21 20:56 | 33.85456 | 131.03324 | 30 ft | 33 kts | 171° |
| 2026-04-21 20:57 | 33.84990 | 131.03421 | 32 ft | 102 kts | 170° |
| 2026-04-21 20:57 | 33.84095 | 131.03608 | 36 ft | 156 kts | 167° |
| 2026-04-21 20:57 | 33.83022 | 131.03838 | 646 ft | 155 kts | 168° |
| 2026-04-21 20:57 | 33.81981 | 131.04268 | 1244 ft | 166 kts | 141° |
| 2026-04-21 20:58 | 33.81425 | 131.05492 | 1628 ft | 180 kts | 95° |
| 2026-04-21 20:58 | 33.81551 | 131.07094 | 1838 ft | 206 kts | 83° |
| 2026-04-21 20:58 | 33.81801 | 131.08875 | 2148 ft | 231 kts | 82° |
| 2026-04-21 20:58 | 33.82079 | 131.10884 | 2559 ft | 253 kts | 83° |
| 2026-04-21 20:59 | 33.82346 | 131.13026 | 3252 ft | 263 kts | 83° |
| 2026-04-21 20:59 | 33.82592 | 131.15244 | 4016 ft | 271 kts | 84° |
| 2026-04-21 20:59 | 33.82819 | 131.17520 | 4827 ft | 277 kts | 84° |
| 2026-04-21 20:59 | 33.83031 | 131.19815 | 5599 ft | 281 kts | 85° |
| 2026-04-21 21:00 | 33.83234 | 131.22166 | 6460 ft | 283 kts | 85° |
| 2026-04-21 21:00 | 33.83431 | 131.24539 | 7252 ft | 287 kts | 85° |
| 2026-04-21 21:00 | 33.83629 | 131.26948 | 8028 ft | 291 kts | 85° |
| 2026-04-21 21:00 | 33.83830 | 131.29396 | 8793 ft | 295 kts | 86° |
| 2026-04-21 21:01 | 33.84032 | 131.31841 | 9560 ft | 300 kts | 86° |
| 2026-04-21 21:01 | 33.84241 | 131.34357 | 10259 ft | 306 kts | 86° |
| 2026-04-21 21:01 | 33.84458 | 131.37005 | 10513 ft | 328 kts | 86° |
| 2026-04-21 21:01 | 33.84688 | 131.39839 | 10707 ft | 351 kts | 86° |
| 2026-04-21 21:02 | 33.84910 | 131.42818 | 10978 ft | 368 kts | 89° |
| 2026-04-21 21:02 | 33.84900 | 131.45927 | 11548 ft | 374 kts | 92° |
| 2026-04-21 21:02 | 33.84864 | 131.49084 | 12188 ft | 379 kts | 92° |
| 2026-04-21 21:02 | 33.84829 | 131.52241 | 12822 ft | 384 kts | 92° |
| 2026-04-21 21:03 | 33.84794 | 131.55486 | 13452 ft | 389 kts | 92° |
| 2026-04-21 21:03 | 33.84759 | 131.58744 | 14045 ft | 394 kts | 92° |
| 2026-04-21 21:03 | 33.84723 | 131.62083 | 14572 ft | 399 kts | 92° |
| 2026-04-21 21:03 | 33.84685 | 131.65450 | 15088 ft | 404 kts | 92° |
| 2026-04-21 21:04 | 33.84644 | 131.68857 | 15608 ft | 410 kts | 92° |
| 2026-04-21 21:04 | 33.84601 | 131.72302 | 16120 ft | 415 kts | 92° |
| 2026-04-21 21:04 | 33.84558 | 131.75757 | 16618 ft | 420 kts | 92° |
| 2026-04-21 21:04 | 33.84510 | 131.79298 | 17126 ft | 425 kts | 92° |
| 2026-04-21 21:05 | 33.84462 | 131.82879 | 17632 ft | 431 kts | 92° |
| 2026-04-21 21:05 | 33.84415 | 131.86499 | 18135 ft | 436 kts | 92° |
| 2026-04-21 21:05 | 33.84368 | 131.90165 | 18596 ft | 441 kts | 92° |
| 2026-04-21 21:05 | 33.84318 | 131.93867 | 19041 ft | 445 kts | 92° |
| 2026-04-21 21:06 | 33.84282 | 131.96351 | 19340 ft | 448 kts | 92° |
| 2026-04-21 21:06 | 33.84225 | 132.00124 | 19799 ft | 452 kts | 92° |
| 2026-04-21 21:06 | 33.84163 | 132.03924 | 20240 ft | 456 kts | 92° |
| 2026-04-21 21:06 | 33.84101 | 132.07759 | 20685 ft | 461 kts | 92° |
| 2026-04-21 21:07 | 33.84039 | 132.11632 | 21120 ft | 464 kts | 92° |
| 2026-04-21 21:07 | 33.83979 | 132.15545 | 21544 ft | 468 kts | 92° |
| 2026-04-21 21:07 | 33.83918 | 132.19423 | 21951 ft | 472 kts | 92° |
| 2026-04-21 21:07 | 33.83853 | 132.23395 | 22361 ft | 476 kts | 92° |
| 2026-04-21 21:08 | 33.83785 | 132.27389 | 22757 ft | 479 kts | 92° |
| 2026-04-21 21:08 | 33.83717 | 132.31427 | 23137 ft | 483 kts | 92° |
| 2026-04-21 21:08 | 33.83647 | 132.35485 | 23515 ft | 486 kts | 92° |
| 2026-04-21 21:08 | 33.83575 | 132.39571 | 23836 ft | 490 kts | 92° |
| 2026-04-21 21:09 | 33.83501 | 132.43686 | 24132 ft | 493 kts | 92° |
| 2026-04-21 21:09 | 33.83426 | 132.47776 | 24428 ft | 495 kts | 92° |
| 2026-04-21 21:09 | 33.83350 | 132.51936 | 24727 ft | 498 kts | 92° |
| 2026-04-21 21:09 | 33.83270 | 132.56116 | 25018 ft | 501 kts | 92° |
| 2026-04-21 21:10 | 33.83188 | 132.60318 | 25307 ft | 504 kts | 92° |
| 2026-04-21 21:10 | 33.83101 | 132.64548 | 25590 ft | 507 kts | 92° |
| 2026-04-21 21:10 | 33.82798 | 132.68776 | 25865 ft | 508 kts | 101° |
| 2026-04-21 21:10 | 33.81951 | 132.72896 | 26138 ft | 508 kts | 111° |
| 2026-04-21 21:11 | 33.80788 | 132.76920 | 26412 ft | 510 kts | 112° |
| 2026-04-21 21:11 | 33.79617 | 132.80967 | 26683 ft | 513 kts | 111° |
| 2026-04-21 21:11 | 33.78458 | 132.84984 | 26952 ft | 516 kts | 111° |
| 2026-04-21 21:11 | 33.77282 | 132.89065 | 27220 ft | 518 kts | 111° |
| 2026-04-21 21:12 | 33.76097 | 132.93176 | 27479 ft | 521 kts | 111° |
| 2026-04-21 21:12 | 33.74906 | 132.97300 | 27751 ft | 523 kts | 111° |
| 2026-04-21 21:12 | 33.73708 | 133.01437 | 27993 ft | 525 kts | 111° |
| 2026-04-21 21:12 | 33.72500 | 133.05596 | 28226 ft | 527 kts | 111° |
| 2026-04-21 21:13 | 33.71286 | 133.09765 | 28456 ft | 529 kts | 112° |
| 2026-04-21 21:13 | 33.70075 | 133.13916 | 28678 ft | 531 kts | 111° |
| 2026-04-21 21:13 | 33.68866 | 133.18052 | 28864 ft | 533 kts | 111° |
| 2026-04-21 21:13 | 33.67637 | 133.22265 | 29065 ft | 535 kts | 111° |
| 2026-04-21 21:14 | 33.66396 | 133.26535 | 29351 ft | 535 kts | 111° |
| 2026-04-21 21:14 | 33.65185 | 133.30693 | 29644 ft | 535 kts | 111° |
| 2026-04-21 21:14 | 33.63953 | 133.34901 | 29936 ft | 534 kts | 111° |
| 2026-04-21 21:14 | 33.62715 | 133.39107 | 30216 ft | 535 kts | 112° |
| 2026-04-21 21:15 | 33.61474 | 133.43314 | 30456 ft | 534 kts | 112° |
| 2026-04-21 21:15 | 33.60218 | 133.47567 | 30706 ft | 534 kts | 112° |
| 2026-04-21 21:15 | 33.58981 | 133.51757 | 30990 ft | 532 kts | 112° |
| 2026-04-21 21:15 | 33.57746 | 133.55940 | 31277 ft | 531 kts | 112° |
| 2026-04-21 21:16 | 33.56528 | 133.60056 | 31559 ft | 529 kts | 112° |
| 2026-04-21 21:16 | 33.55304 | 133.64227 | 31851 ft | 529 kts | 110° |
| 2026-04-21 21:16 | 33.54388 | 133.68506 | 32131 ft | 530 kts | 101° |
| 2026-04-21 21:16 | 33.53960 | 133.72890 | 32408 ft | 530 kts | 93° |
| 2026-04-21 21:17 | 33.53781 | 133.77305 | 32687 ft | 529 kts | 93° |
| 2026-04-21 21:17 | 33.53595 | 133.81706 | 32979 ft | 528 kts | 93° |
| 2026-04-21 21:17 | 33.53402 | 133.86096 | 33266 ft | 527 kts | 94° |
| 2026-04-21 21:17 | 33.53208 | 133.90426 | 33541 ft | 526 kts | 94° |
| 2026-04-21 21:18 | 33.53009 | 133.94800 | 33818 ft | 525 kts | 94° |
| 2026-04-21 21:18 | 33.52810 | 133.99178 | 34090 ft | 525 kts | 94° |
| 2026-04-21 21:18 | 33.52614 | 134.03540 | 34341 ft | 523 kts | 94° |
| 2026-04-21 21:18 | 33.52417 | 134.07907 | 34598 ft | 522 kts | 94° |
| 2026-04-21 21:19 | 33.52217 | 134.12250 | 34842 ft | 521 kts | 94° |
| 2026-04-21 21:19 | 33.52015 | 134.16587 | 35070 ft | 520 kts | 94° |
| 2026-04-21 21:19 | 33.51812 | 134.20917 | 35287 ft | 520 kts | 94° |
| 2026-04-21 21:19 | 33.51613 | 134.25189 | 35440 ft | 519 kts | 94° |
| 2026-04-21 21:20 | 33.51412 | 134.29509 | 35647 ft | 518 kts | 94° |
| 2026-04-21 21:20 | 33.51210 | 134.33815 | 35850 ft | 517 kts | 94° |
| 2026-04-21 21:20 | 33.51004 | 134.38116 | 36042 ft | 517 kts | 94° |
| 2026-04-21 21:20 | 33.50801 | 134.42412 | 36229 ft | 516 kts | 93° |
| 2026-04-21 21:21 | 33.50606 | 134.46704 | 36415 ft | 515 kts | 93° |
| 2026-04-21 21:21 | 33.50420 | 134.50986 | 36586 ft | 515 kts | 93° |
| 2026-04-21 21:21 | 33.50240 | 134.55272 | 36756 ft | 514 kts | 93° |
| 2026-04-21 21:21 | 33.50061 | 134.59548 | 36920 ft | 513 kts | 93° |
| 2026-04-21 21:22 | 33.49881 | 134.63817 | 37056 ft | 513 kts | 93° |
| 2026-04-21 21:22 | 33.49699 | 134.68093 | 37080 ft | 514 kts | 93° |
| 2026-04-21 21:22 | 33.49323 | 134.76654 | 37076 ft | 514 kts | 93° |
| 2026-04-21 21:23 | 33.48942 | 134.85141 | 37077 ft | 513 kts | 93° |
| 2026-04-21 21:23 | 33.48559 | 134.93695 | 37078 ft | 513 kts | 93° |
| 2026-04-21 21:24 | 33.48172 | 135.02232 | 37077 ft | 512 kts | 93° |
| 2026-04-21 21:24 | 33.47792 | 135.10710 | 37085 ft | 512 kts | 93° |
| 2026-04-21 21:25 | 33.47404 | 135.19233 | 37089 ft | 512 kts | 93° |
| 2026-04-21 21:25 | 33.47012 | 135.27765 | 37097 ft | 512 kts | 93° |
| 2026-04-21 21:26 | 33.46626 | 135.36226 | 37098 ft | 512 kts | 93° |
| 2026-04-21 21:26 | 33.46265 | 135.44750 | 37098 ft | 512 kts | 93° |
| 2026-04-21 21:27 | 33.45920 | 135.53269 | 37101 ft | 512 kts | 93° |
| 2026-04-21 21:27 | 33.45556 | 135.61798 | 37105 ft | 512 kts | 93° |
| 2026-04-21 21:28 | 33.45183 | 135.70253 | 37104 ft | 511 kts | 93° |
| 2026-04-21 21:29 | 33.45470 | 135.82980 | 37103 ft | 509 kts | 75° |
| 2026-04-21 21:29 | 33.47094 | 135.91178 | 37099 ft | 509 kts | 75° |
| 2026-04-21 21:30 | 33.48715 | 135.99437 | 37100 ft | 509 kts | 75° |
| 2026-04-21 21:30 | 33.50329 | 136.07727 | 37102 ft | 510 kts | 75° |
| 2026-04-21 21:31 | 33.51932 | 136.16010 | 37098 ft | 510 kts | 75° |
| 2026-04-21 21:31 | 33.53541 | 136.24302 | 37095 ft | 511 kts | 75° |
| 2026-04-21 21:32 | 33.55139 | 136.32547 | 37095 ft | 511 kts | 75° |
| 2026-04-21 21:32 | 33.56744 | 136.40858 | 37103 ft | 511 kts | 75° |
| 2026-04-21 21:33 | 33.58340 | 136.49171 | 37102 ft | 512 kts | 75° |
| 2026-04-21 21:33 | 33.59927 | 136.57497 | 37103 ft | 512 kts | 75° |
| 2026-04-21 21:34 | 33.61514 | 136.65831 | 37101 ft | 512 kts | 75° |
| 2026-04-21 21:34 | 33.63087 | 136.74124 | 37098 ft | 512 kts | 75° |
| 2026-04-21 21:35 | 33.64663 | 136.82465 | 37101 ft | 512 kts | 75° |
| 2026-04-21 21:35 | 33.66243 | 136.90825 | 37101 ft | 513 kts | 75° |
| 2026-04-21 21:36 | 33.67800 | 136.99129 | 37098 ft | 513 kts | 75° |
| 2026-04-21 21:36 | 33.69357 | 137.07505 | 37097 ft | 513 kts | 76° |
| 2026-04-21 21:37 | 33.70213 | 137.16009 | 37093 ft | 515 kts | 88° |
| 2026-04-21 21:37 | 33.70467 | 137.24626 | 37091 ft | 515 kts | 88° |
| 2026-04-21 21:38 | 33.70735 | 137.33191 | 37087 ft | 516 kts | 88° |
| 2026-04-21 21:38 | 33.70994 | 137.41803 | 37090 ft | 516 kts | 88° |
| 2026-04-21 21:39 | 33.71243 | 137.50442 | 37093 ft | 516 kts | 88° |
| 2026-04-21 21:39 | 33.71478 | 137.59009 | 37094 ft | 517 kts | 88° |
| 2026-04-21 21:40 | 33.71709 | 137.67640 | 37094 ft | 517 kts | 88° |
| 2026-04-21 21:40 | 33.71938 | 137.76277 | 37094 ft | 517 kts | 88° |
| 2026-04-21 21:41 | 33.72164 | 137.84917 | 37099 ft | 517 kts | 88° |
| 2026-04-21 21:41 | 33.72382 | 137.93532 | 37095 ft | 518 kts | 88° |
| 2026-04-21 21:42 | 33.72594 | 138.02175 | 37097 ft | 518 kts | 88° |
| 2026-04-21 21:42 | 33.72800 | 138.10821 | 37096 ft | 518 kts | 88° |
| 2026-04-21 21:43 | 33.73006 | 138.19480 | 37100 ft | 518 kts | 88° |
| 2026-04-21 21:43 | 33.73195 | 138.28147 | 37102 ft | 518 kts | 89° |
| 2026-04-21 21:44 | 33.73377 | 138.36812 | 37101 ft | 519 kts | 89° |
| 2026-04-21 21:44 | 33.73558 | 138.45438 | 37103 ft | 519 kts | 89° |
| 2026-04-21 21:45 | 33.73738 | 138.54124 | 37103 ft | 519 kts | 89° |
| 2026-04-21 21:45 | 33.73910 | 138.62764 | 37107 ft | 519 kts | 89° |
| 2026-04-21 21:46 | 33.74069 | 138.71449 | 37102 ft | 520 kts | 89° |
| 2026-04-21 21:46 | 33.74226 | 138.80131 | 37107 ft | 520 kts | 89° |
| 2026-04-21 21:47 | 33.74940 | 138.88747 | 37105 ft | 518 kts | 74° |
| 2026-04-21 21:47 | 33.77525 | 138.96748 | 37109 ft | 511 kts | 56° |
| 2026-04-21 21:48 | 33.81164 | 139.04018 | 37106 ft | 510 kts | 54° |
| 2026-04-21 21:48 | 33.84838 | 139.11342 | 37106 ft | 511 kts | 54° |
| 2026-04-21 21:49 | 33.88502 | 139.18670 | 37112 ft | 511 kts | 54° |
| 2026-04-21 21:49 | 33.92169 | 139.26013 | 37117 ft | 512 kts | 55° |
| 2026-04-21 21:50 | 33.95827 | 139.33373 | 37124 ft | 512 kts | 55° |
| 2026-04-21 21:50 | 33.99485 | 139.40750 | 37121 ft | 513 kts | 55° |
| 2026-04-21 21:51 | 34.03112 | 139.48089 | 37128 ft | 513 kts | 55° |
| 2026-04-21 21:51 | 34.06790 | 139.55457 | 37120 ft | 511 kts | 51° |
| 2026-04-21 21:52 | 34.11130 | 139.62180 | 37118 ft | 507 kts | 46° |
| 2026-04-21 21:52 | 34.15547 | 139.68826 | 37119 ft | 508 kts | 46° |
| 2026-04-21 21:53 | 34.19961 | 139.75494 | 36968 ft | 509 kts | 46° |
| 2026-04-21 21:53 | 34.22184 | 139.78850 | 36228 ft | 511 kts | 46° |
| 2026-04-21 21:53 | 34.24406 | 139.82205 | 35376 ft | 514 kts | 46° |
| 2026-04-21 21:53 | 34.26664 | 139.85612 | 34420 ft | 520 kts | 46° |
| 2026-04-21 21:54 | 34.28914 | 139.89014 | 33307 ft | 528 kts | 46° |
| 2026-04-21 21:54 | 34.31214 | 139.92502 | 32216 ft | 532 kts | 46° |
| 2026-04-21 21:54 | 34.33529 | 139.96022 | 31077 ft | 537 kts | 46° |
| 2026-04-21 21:54 | 34.35868 | 139.99581 | 29872 ft | 541 kts | 46° |
| 2026-04-21 21:55 | 34.38223 | 140.03163 | 28624 ft | 542 kts | 46° |
| 2026-04-21 21:55 | 34.40578 | 140.06747 | 27480 ft | 541 kts | 47° |
| 2026-04-21 21:55 | 34.42891 | 140.10282 | 26871 ft | 530 kts | 47° |
| 2026-04-21 21:55 | 34.45136 | 140.13724 | 26051 ft | 525 kts | 48° |
| 2026-04-21 21:56 | 34.47195 | 140.17379 | 25290 ft | 524 kts | 54° |
| 2026-04-21 21:56 | 34.49119 | 140.21107 | 24515 ft | 519 kts | 54° |
| 2026-04-21 21:56 | 34.51030 | 140.24806 | 23873 ft | 512 kts | 54° |
| 2026-04-21 21:56 | 34.52281 | 140.27231 | 23204 ft | 511 kts | 54° |
| 2026-04-21 21:57 | 34.54151 | 140.30858 | 22618 ft | 502 kts | 54° |
| 2026-04-21 21:57 | 34.55989 | 140.34430 | 21965 ft | 496 kts | 54° |
| 2026-04-21 21:57 | 34.58398 | 140.39106 | 21040 ft | 489 kts | 54° |
| 2026-04-21 21:57 | 34.60192 | 140.42590 | 20452 ft | 483 kts | 55° |
| 2026-04-21 21:58 | 34.61395 | 140.44926 | 20012 ft | 481 kts | 55° |
| 2026-04-21 21:58 | 34.63137 | 140.48314 | 19419 ft | 476 kts | 55° |
| 2026-04-21 21:58 | 34.64888 | 140.51722 | 18833 ft | 472 kts | 55° |
| 2026-04-21 21:58 | 34.66617 | 140.55088 | 18247 ft | 468 kts | 55° |
| 2026-04-21 21:59 | 34.68326 | 140.58420 | 17673 ft | 462 kts | 55° |
| 2026-04-21 21:59 | 34.70045 | 140.61710 | 17072 ft | 456 kts | 51° |
| 2026-04-21 21:59 | 34.72108 | 140.64504 | 16535 ft | 444 kts | 37° |
| 2026-04-21 21:59 | 34.74605 | 140.66614 | 15996 ft | 432 kts | 23° |
| 2026-04-21 22:00 | 34.77359 | 140.67945 | 15471 ft | 420 kts | 10° |
| 2026-04-21 22:00 | 34.80197 | 140.68518 | 14933 ft | 409 kts | 1° |
| 2026-04-21 22:00 | 34.83023 | 140.68866 | 14381 ft | 406 kts | 1° |
| 2026-04-21 22:00 | 34.85831 | 140.69211 | 13831 ft | 403 kts | 1° |
| 2026-04-21 22:01 | 34.88609 | 140.69558 | 13217 ft | 399 kts | 1° |
| 2026-04-21 22:01 | 34.91325 | 140.69901 | 12627 ft | 395 kts | 2° |
| 2026-04-21 22:01 | 34.94028 | 140.70243 | 12381 ft | 382 kts | 2° |
| 2026-04-21 22:01 | 34.96621 | 140.70571 | 12248 ft | 366 kts | 1° |
| 2026-04-21 22:02 | 34.99111 | 140.70885 | 12115 ft | 352 kts | 1° |
| 2026-04-21 22:02 | 35.01502 | 140.71187 | 11990 ft | 338 kts | 1° |
| 2026-04-21 22:02 | 35.03769 | 140.71472 | 11867 ft | 326 kts | 1° |
| 2026-04-21 22:02 | 35.05990 | 140.71791 | 11747 ft | 317 kts | 8° |
| 2026-04-21 22:03 | 35.07983 | 140.72798 | 11626 ft | 315 kts | 32° |
| 2026-04-21 22:03 | 35.09542 | 140.74687 | 11502 ft | 309 kts | 49° |
| 2026-04-21 22:03 | 35.10846 | 140.76730 | 11369 ft | 300 kts | 50° |
| 2026-04-21 22:03 | 35.12112 | 140.78703 | 11232 ft | 291 kts | 45° |
| 2026-04-21 22:04 | 35.13664 | 140.80195 | 10987 ft | 279 kts | 22° |
| 2026-04-21 22:04 | 35.15465 | 140.80870 | 10732 ft | 266 kts | 0° |
| 2026-04-21 22:04 | 35.17268 | 140.80729 | 10501 ft | 255 kts | 341° |
| 2026-04-21 22:04 | 35.18966 | 140.80197 | 10264 ft | 254 kts | 341° |
| 2026-04-21 22:05 | 35.20679 | 140.79663 | 10017 ft | 253 kts | 341° |
| 2026-04-21 22:05 | 35.22388 | 140.79137 | 9678 ft | 252 kts | 341° |
| 2026-04-21 22:05 | 35.24084 | 140.78619 | 9341 ft | 251 kts | 341° |
| 2026-04-21 22:05 | 35.25762 | 140.78106 | 9086 ft | 246 kts | 341° |
| 2026-04-21 22:06 | 35.27411 | 140.77599 | 8780 ft | 243 kts | 341° |
| 2026-04-21 22:06 | 35.29049 | 140.77095 | 8438 ft | 242 kts | 342° |
| 2026-04-21 22:06 | 35.30680 | 140.76593 | 8086 ft | 241 kts | 342° |
| 2026-04-21 22:06 | 35.32299 | 140.76094 | 7739 ft | 240 kts | 342° |
| 2026-04-21 22:07 | 35.33916 | 140.75594 | 7396 ft | 238 kts | 342° |
| 2026-04-21 22:07 | 35.35521 | 140.75097 | 7064 ft | 237 kts | 342° |
| 2026-04-21 22:07 | 35.37117 | 140.74603 | 6736 ft | 236 kts | 342° |
| 2026-04-21 22:07 | 35.38694 | 140.74083 | 6394 ft | 234 kts | 337° |
| 2026-04-21 22:08 | 35.40136 | 140.73242 | 6063 ft | 229 kts | 324° |
| 2026-04-21 22:08 | 35.41386 | 140.72045 | 6005 ft | 228 kts | 313° |
| 2026-04-21 22:08 | 35.42407 | 140.70559 | 6009 ft | 227 kts | 301° |
| 2026-04-21 22:08 | 35.43153 | 140.68862 | 5908 ft | 226 kts | 289° |
| 2026-04-21 22:09 | 35.43701 | 140.67057 | 5736 ft | 225 kts | 288° |
| 2026-04-21 22:09 | 35.44262 | 140.65280 | 5630 ft | 227 kts | 294° |
| 2026-04-21 22:09 | 35.45145 | 140.63661 | 5536 ft | 230 kts | 309° |
| 2026-04-21 22:09 | 35.46375 | 140.62379 | 5448 ft | 234 kts | 326° |
| 2026-04-21 22:10 | 35.47757 | 140.61389 | 5357 ft | 225 kts | 327° |
| 2026-04-21 22:10 | 35.49080 | 140.60445 | 5277 ft | 217 kts | 327° |
| 2026-04-21 22:10 | 35.50384 | 140.59511 | 5192 ft | 216 kts | 327° |
| 2026-04-21 22:10 | 35.51682 | 140.58580 | 5102 ft | 216 kts | 327° |
| 2026-04-21 22:11 | 35.52981 | 140.57647 | 5018 ft | 216 kts | 327° |
| 2026-04-21 22:11 | 35.54261 | 140.56727 | 5026 ft | 215 kts | 327° |
| 2026-04-21 22:11 | 35.55556 | 140.55799 | 5023 ft | 210 kts | 327° |
| 2026-04-21 22:11 | 35.56784 | 140.54920 | 4994 ft | 201 kts | 327° |
| 2026-04-21 22:12 | 35.57987 | 140.54057 | 5001 ft | 200 kts | 327° |
| 2026-04-21 22:12 | 35.59197 | 140.53182 | 4664 ft | 204 kts | 327° |
| 2026-04-21 22:12 | 35.60419 | 140.52301 | 4334 ft | 203 kts | 327° |
| 2026-04-21 22:12 | 35.61641 | 140.51422 | 4045 ft | 203 kts | 327° |
| 2026-04-21 22:13 | 35.62853 | 140.50551 | 3774 ft | 201 kts | 327° |
| 2026-04-21 22:13 | 35.64045 | 140.49693 | 3509 ft | 200 kts | 327° |
| 2026-04-21 22:13 | 35.65250 | 140.48826 | 3244 ft | 200 kts | 327° |
| 2026-04-21 22:13 | 35.66454 | 140.47959 | 2977 ft | 200 kts | 327° |
| 2026-04-21 22:14 | 35.67656 | 140.47094 | 2712 ft | 200 kts | 327° |
| 2026-04-21 22:14 | 35.68860 | 140.46226 | 2436 ft | 199 kts | 327° |
| 2026-04-21 22:14 | 35.70032 | 140.45383 | 2161 ft | 189 kts | 327° |
| 2026-04-21 22:14 | 35.71115 | 140.44604 | 1955 ft | 174 kts | 326° |
| 2026-04-21 22:15 | 35.72133 | 140.43871 | 1718 ft | 165 kts | 326° |
| 2026-04-21 22:15 | 35.73107 | 140.43167 | 1491 ft | 161 kts | 326° |
| 2026-04-21 22:15 | 35.74067 | 140.42474 | 1276 ft | 159 kts | 327° |
| 2026-04-21 22:15 | 35.75011 | 140.41793 | 1049 ft | 155 kts | 327° |
| 2026-04-21 22:16 | 35.75934 | 140.41118 | 824 ft | 152 kts | 327° |
| 2026-04-21 22:16 | 35.76839 | 140.40458 | 597 ft | 150 kts | 328° |
| 2026-04-21 22:16 | 35.77722 | 140.39830 | 365 ft | 146 kts | 329° |
| 2026-04-21 22:16 | 35.78589 | 140.39205 | 199 ft | 142 kts | 329° |
| 2026-04-21 22:17 | 35.79366 | 140.38642 | 145 ft | 108 kts | 329° |
| 2026-04-21 22:17 | 35.79863 | 140.38280 | 145 ft | 58 kts | 329° |
| 2026-04-21 22:17 | 35.80078 | 140.38127 | 147 ft | 23 kts | 330° |
| 2026-04-21 22:17 | 35.80220 | 140.38018 | 146 ft | 25 kts | 322° |
| 2026-04-21 22:18 | 35.80313 | 140.37886 | 145 ft | 21 kts | 307° |
| 2026-04-21 22:18 | 35.80360 | 140.37791 | 144 ft | 4 kts | 294° |
| 2026-04-21 22:18 | 35.80364 | 140.37742 | 143 ft | 9 kts | 252° |
| 2026-04-21 22:18 | 35.80310 | 140.37712 | 143 ft | 9 kts | 174° |
| 2026-04-21 22:19 | 35.80249 | 140.37749 | 144 ft | 9 kts | 150° |
| 2026-04-21 22:19 | 35.80167 | 140.37808 | 144 ft | 16 kts | 149° |
| 2026-04-21 22:19 | 35.80068 | 140.37880 | 144 ft | 17 kts | 149° |
| 2026-04-21 22:19 | 35.79965 | 140.37955 | 144 ft | 17 kts | 149° |
| 2026-04-21 22:20 | 35.79859 | 140.38033 | 144 ft | 18 kts | 149° |
| 2026-04-21 22:20 | 35.79744 | 140.38114 | 144 ft | 20 kts | 152° |
| 2026-04-21 22:20 | 35.79621 | 140.38203 | 144 ft | 21 kts | 149° |
| 2026-04-21 22:20 | 35.79487 | 140.38299 | 144 ft | 23 kts | 150° |
| 2026-04-21 22:21 | 35.79346 | 140.38400 | 144 ft | 25 kts | 149° |
| 2026-04-21 22:21 | 35.79193 | 140.38510 | 144 ft | 26 kts | 150° |
| 2026-04-21 22:21 | 35.79067 | 140.38606 | 144 ft | 14 kts | 130° |
| 2026-04-21 22:21 | 35.79021 | 140.38705 | 144 ft | 12 kts | 122° |
| 2026-04-21 22:22 | 35.78967 | 140.38776 | 144 ft | 11 kts | 142° |
| 2026-04-21 22:22 | 35.78903 | 140.38817 | 144 ft | 11 kts | 161° |
| 2026-04-21 22:22 | 35.78827 | 140.38846 | 144 ft | 12 kts | 162° |
| 2026-04-21 22:22 | 35.78740 | 140.38845 | 144 ft | 14 kts | 189° |
| 2026-04-21 22:23 | 35.78636 | 140.38825 | 144 ft | 16 kts | 188° |
| 2026-04-21 22:23 | 35.78523 | 140.38805 | 144 ft | 17 kts | 186° |
| 2026-04-21 22:23 | 35.78403 | 140.38788 | 144 ft | 18 kts | 186° |
| 2026-04-21 22:23 | 35.78288 | 140.38774 | 144 ft | 13 kts | 179° |
| 2026-04-21 22:24 | 35.78207 | 140.38795 | 143 ft | 11 kts | 166° |
| 2026-04-21 22:24 | 35.78134 | 140.38816 | 143 ft | 10 kts | 166° |
| 2026-04-21 22:24 | 35.78078 | 140.38799 | 143 ft | 8 kts | 220° |
| 2026-04-21 22:24 | 35.78041 | 140.38757 | 143 ft | 7 kts | 223° |
| 2026-04-21 22:25 | 35.78010 | 140.38722 | 143 ft | 5 kts | 223° |
| 2026-04-21 22:25 | 35.77967 | 140.38680 | 143 ft | 10 kts | 207° |
| 2026-04-21 22:25 | 35.77921 | 140.38625 | 143 ft | 9 kts | 239° |
| 2026-04-21 22:25 | 35.77911 | 140.38603 | 143 ft | 0 kts | 239° |